createdAt,value
2022-08-05T00:02:24.954Z,100669.14
2022-08-05T00:08:00.072Z,100675.95
2022-08-05T00:12:55.800Z,100669.67
2022-08-05T00:17:45.335Z,100669.34
2022-08-05T00:22:52.548Z,100674.28
2022-08-05T00:28:00.159Z,100683.96
2022-08-05T00:33:05.940Z,100655.22
2022-08-05T00:38:13.478Z,100646.00
2022-08-05T00:43:21.340Z,100646.62
2022-08-05T00:48:31.210Z,100642.70
2022-08-05T00:54:00.058Z,100651.06
2022-08-05T00:58:42.527Z,100648.97
2022-08-05T01:03:49.974Z,100645.59
2022-08-05T01:08:55.730Z,100645.64
2022-08-05T01:14:11.827Z,100635.97
2022-08-05T01:19:46.185Z,100627.20
2022-08-05T01:24:46.820Z,100625.47
2022-08-05T01:29:55.452Z,100618.53
2022-08-05T01:35:10.708Z,100618.42
2022-08-05T01:40:14.188Z,100615.91
2022-08-05T01:45:22.932Z,100611.45
2022-08-05T01:50:40.507Z,100604.27
2022-08-05T01:55:48.692Z,100601.58
2022-08-05T02:00:57.072Z,100601.25
2022-08-05T02:06:33.935Z,100599.22
2022-08-05T02:11:16.382Z,100600.08
2022-08-05T02:16:27.695Z,100612.20
2022-08-05T02:21:40.263Z,100628.64
2022-08-05T02:26:55.853Z,100635.64
2022-08-05T02:32:04.750Z,100632.05
2022-08-05T02:37:13.100Z,100625.77
2022-08-05T02:42:25.688Z,100627.98
2022-08-05T02:47:58.748Z,100625.29
2022-08-05T02:52:37.122Z,100634.02
2022-08-05T02:58:10.280Z,100639.23
2022-08-05T03:02:54.034Z,100639.72
2022-08-05T03:08:07.006Z,100628.22
2022-08-05T03:13:17.264Z,100618.60
2022-08-05T03:18:24.622Z,100611.27
2022-08-05T03:23:30.642Z,100606.87
2022-08-05T03:28:37.130Z,100600.47
2022-08-05T03:33:52.778Z,100598.62
2022-08-05T03:38:53.240Z,100596.09
2022-08-05T03:44:08.957Z,100601.58
2022-08-05T03:49:04.819Z,100618.34
2022-08-05T03:55:51.364Z,100622.66
2022-08-05T03:59:26.323Z,100615.42
2022-08-05T04:04:34.871Z,100615.48
2022-08-05T04:09:53.552Z,100623.85
2022-08-05T04:14:48.987Z,100620.89
2022-08-05T04:19:58.636Z,100616.27
2022-08-05T04:25:01.825Z,100620.86
2022-08-05T04:30:09.369Z,100613.79
2022-08-05T04:35:19.380Z,100606.69
2022-08-05T04:40:22.272Z,100616.89
2022-08-05T04:45:48.336Z,100611.84
2022-08-05T04:51:03.021Z,100613.03
2022-08-05T04:56:14.768Z,100617.77
2022-08-05T05:00:55.721Z,100624.73
2022-08-05T05:06:40.555Z,100627.69
2022-08-05T05:11:08.969Z,100627.89
2022-08-05T05:16:15.471Z,100623.12
2022-08-05T05:21:22.458Z,100626.08
2022-08-05T05:26:32.761Z,100617.47
2022-08-05T05:36:41.393Z,100623.26
2022-08-05T05:41:54.333Z,100634.13
2022-08-05T05:46:57.826Z,100628.50
2022-08-05T05:52:05.697Z,100624.53
2022-08-05T05:57:13.690Z,100621.22
2022-08-05T06:02:37.565Z,100616.11
2022-08-05T06:07:41.983Z,100620.81
2022-08-05T06:12:33.058Z,100618.11
2022-08-05T06:17:53.125Z,100627.52
2022-08-05T06:22:46.538Z,100620.10
2022-08-05T06:28:11.918Z,100623.79
2022-08-05T06:32:59.450Z,100617.77
2022-08-05T06:38:09.978Z,100611.95
2022-08-05T06:43:58.654Z,100613.88
2022-08-05T06:48:54.571Z,100616.36
2022-08-05T06:53:28.516Z,100607.85
2022-08-05T06:58:36.766Z,100612.67
2022-08-05T07:03:42.130Z,100624.44
2022-08-05T07:08:54.749Z,100650.25
2022-08-05T07:14:15.836Z,100685.16
2022-08-05T07:20:10.508Z,100705.70
2022-08-05T07:24:29.845Z,100706.02
2022-08-05T07:30:27.814Z,100712.77
2022-08-05T07:34:43.784Z,100716.23
2022-08-05T07:40:27.050Z,100705.67
2022-08-05T07:44:57.357Z,100689.84
2022-08-05T07:50:06.637Z,100699.37
2022-08-05T07:55:15.907Z,100703.47
2022-08-05T08:00:19.814Z,100705.38
2022-08-05T08:05:27.004Z,100715.83
2022-08-05T08:10:32.592Z,100725.80
2022-08-05T08:16:35.578Z,100733.80
2022-08-05T08:21:02.410Z,100740.02
2022-08-05T08:25:59.194Z,100733.34
2022-08-05T08:31:00.465Z,100737.37
2022-08-05T08:36:38.898Z,100745.25
2022-08-05T08:41:16.915Z,100745.63
2022-08-05T08:46:25.068Z,100755.52
2022-08-05T08:52:03.025Z,100767.50
2022-08-05T08:56:47.412Z,100774.69
2022-08-05T09:01:57.099Z,100802.03
2022-08-05T09:06:58.328Z,100798.00
2022-08-05T09:12:19.938Z,100801.45
2022-08-05T09:17:43.144Z,100775.00
2022-08-05T09:22:31.189Z,100784.93
2022-08-05T09:28:03.778Z,100774.27
2022-08-05T09:32:46.852Z,100780.39
2022-08-05T09:38:12.391Z,100771.80
2022-08-05T09:43:04.992Z,100759.30
2022-08-05T09:48:27.111Z,100759.31
2022-08-05T09:53:54.506Z,100746.84
2022-08-05T09:59:04.661Z,100728.20
2022-08-05T10:04:13.904Z,100727.25
2022-08-05T10:09:27.501Z,100730.73
2022-08-05T10:14:33.099Z,100716.20
2022-08-05T10:20:04.258Z,100742.97
2022-08-05T10:24:46.795Z,100758.99
2022-08-05T10:30:41.510Z,100773.20
2022-08-05T10:35:02.301Z,100786.89
2022-08-05T10:40:17.513Z,100782.91
2022-08-05T10:45:23.591Z,100768.25
2022-08-05T10:50:36.349Z,100759.99
2022-08-05T10:56:03.813Z,100748.64
2022-08-05T11:00:48.577Z,100750.61
2022-08-05T11:06:08.526Z,100761.37
2022-08-05T11:11:52.136Z,100744.91
2022-08-05T11:16:47.885Z,100752.04
2022-08-05T11:21:49.808Z,100760.05
2022-08-05T11:27:15.071Z,100785.08
2022-08-05T11:32:31.397Z,100784.84
2022-08-05T11:38:29.049Z,100798.02
2022-08-05T11:42:53.570Z,100793.66
2022-08-05T11:47:59.864Z,100790.50
2022-08-05T11:53:09.800Z,100767.63
2022-08-05T11:58:14.061Z,100785.20
2022-08-05T12:03:28.746Z,100775.98
2022-08-05T12:08:32.661Z,100795.16
2022-08-05T12:13:48.585Z,100778.30
2022-08-05T12:18:52.219Z,100792.74
2022-08-05T12:24:08.501Z,100782.75
2022-08-05T12:29:22.500Z,100769.73
2022-08-05T12:34:29.670Z,100800.81
2022-08-05T12:39:38.711Z,100791.26
2022-08-05T12:44:44.908Z,100789.70
2022-08-05T12:50:04.009Z,100788.23
2022-08-05T12:54:57.909Z,100778.25
2022-08-05T13:01:58.236Z,100777.83
2022-08-05T13:05:16.170Z,100794.76
2022-08-05T13:10:21.925Z,100809.54
2022-08-05T13:15:41.510Z,100811.09
2022-08-05T13:20:40.429Z,100815.66
2022-08-05T13:25:58.838Z,100813.44
2022-08-05T13:30:55.555Z,100814.86
2022-08-05T13:36:05.174Z,100814.14
2022-08-05T13:41:10.285Z,100813.88
2022-08-05T13:46:18.529Z,100818.77
2022-08-05T13:51:36.673Z,100820.81
2022-08-05T13:56:45.423Z,100820.89
2022-08-05T14:01:56.676Z,100801.58
2022-08-05T14:06:58.826Z,100807.84
2022-08-05T14:12:18.182Z,100816.11
2022-08-05T14:17:16.886Z,100812.59
2022-08-05T14:22:19.500Z,100797.16
2022-08-05T14:27:25.052Z,100791.41
2022-08-05T14:32:32.753Z,100797.45
2022-08-05T14:37:48.026Z,100801.47
2022-08-05T14:42:48.275Z,100804.73
2022-08-05T14:48:03.774Z,100796.68
2022-08-05T14:53:02.321Z,100799.02
2022-08-05T14:58:11.123Z,100792.17
2022-08-05T15:03:17.005Z,100798.74
2022-08-05T15:08:58.329Z,100796.07
2022-08-05T15:13:46.228Z,100800.11
2022-08-05T15:18:40.135Z,100797.53
2022-08-05T15:23:47.132Z,100795.91
2022-08-05T15:28:53.513Z,100798.58
2022-08-05T15:34:19.073Z,100801.81
2022-08-05T15:41:00.430Z,100803.80
2022-08-05T15:44:13.714Z,100809.61
2022-08-05T15:49:27.475Z,100822.73
2022-08-05T15:54:34.992Z,100822.19
2022-08-05T15:59:34.786Z,100838.18
2022-08-05T16:04:40.346Z,100839.17
2022-08-05T16:09:46.328Z,100852.36
2022-08-05T16:14:51.987Z,100851.34
2022-08-05T16:20:05.972Z,100868.72
2022-08-05T16:25:09.491Z,100857.31
2022-08-05T16:30:25.900Z,100857.86
2022-08-05T16:35:27.942Z,100853.16
2022-08-05T16:40:29.686Z,100883.14
2022-08-05T16:46:07.235Z,100892.24
2022-08-05T16:50:42.716Z,100901.43
2022-08-05T16:55:48.283Z,100913.06
2022-08-05T17:00:54.152Z,100923.30
2022-08-05T17:06:03.925Z,100911.09
2022-08-05T17:11:12.862Z,100937.75
2022-08-05T17:16:32.741Z,100941.34
2022-08-05T17:21:36.412Z,100943.77
2022-08-05T17:26:34.626Z,100942.10
2022-08-05T17:31:57.310Z,100939.75
2022-08-05T17:36:49.896Z,100962.95
2022-08-05T17:42:17.844Z,100955.55
2022-08-05T17:47:02.669Z,100966.33
2022-08-05T17:52:08.240Z,100979.64
2022-08-05T17:57:15.431Z,100985.05
2022-08-05T18:02:21.922Z,101015.34
2022-08-05T18:07:32.851Z,101033.48
2022-08-05T18:12:36.329Z,101049.89
2022-08-05T18:17:58.713Z,101056.48
2022-08-05T18:22:54.961Z,101066.95
2022-08-05T18:27:56.325Z,101084.81
2022-08-05T18:33:03.554Z,101108.76
2022-08-05T18:38:09.264Z,101110.15
2022-08-05T18:43:16.571Z,101103.84
2022-08-05T18:48:30.588Z,101119.82
2022-08-05T18:53:29.701Z,101142.46
2022-08-05T18:58:36.960Z,101125.83
2022-08-05T19:03:55.237Z,101136.98
2022-08-05T19:08:51.486Z,101158.16
2022-08-05T19:14:00.777Z,101157.33
2022-08-05T19:19:05.880Z,101157.12
2022-08-05T19:24:13.313Z,101162.74
2022-08-05T19:29:20.933Z,101159.91
2022-08-05T19:34:26.985Z,101169.22
2022-08-05T19:39:32.670Z,101172.72
2022-08-05T19:44:45.036Z,101172.86
2022-08-05T19:49:49.764Z,101185.59
2022-08-05T19:54:55.661Z,101175.42
2022-08-05T20:00:04.343Z,101180.19
2022-08-05T20:05:16.563Z,101191.23
2022-08-05T20:10:22.391Z,101211.81
2022-08-05T20:15:51.688Z,101209.81
2022-08-05T20:20:33.939Z,101204.24
2022-08-05T20:25:43.205Z,101199.89
2022-08-05T20:30:49.405Z,101203.36
2022-08-05T20:35:56.951Z,101213.67
2022-08-05T20:41:04.638Z,101210.37
2022-08-05T20:46:18.225Z,101220.28
2022-08-05T20:51:21.484Z,101233.73
2022-08-05T20:56:29.689Z,101236.61
2022-08-05T21:01:38.645Z,101251.28
2022-08-05T21:06:45.538Z,101270.78
2022-08-05T21:12:07.463Z,101272.13
2022-08-05T21:16:57.482Z,101274.45
2022-08-05T21:22:03.076Z,101273.87
2022-08-05T21:27:09.227Z,101281.08
2022-08-05T21:32:19.839Z,101296.93
2022-08-05T21:37:21.981Z,101304.06
2022-08-05T21:42:41.171Z,101317.88
2022-08-05T21:47:56.432Z,101318.48
2022-08-05T21:52:47.120Z,101307.91
2022-08-05T21:57:51.415Z,101320.09
2022-08-05T22:02:58.622Z,101321.20
2022-08-05T22:08:04.190Z,101318.56
2022-08-05T22:14:19.953Z,101327.06
2022-08-05T22:18:19.621Z,101330.02
2022-08-05T22:24:02.402Z,101325.09
2022-08-05T22:28:50.994Z,101326.69
2022-08-05T22:34:01.519Z,101322.30
2022-08-05T22:39:09.424Z,101327.47
2022-08-05T22:44:13.991Z,101319.22
2022-08-05T22:50:18.084Z,101315.95
2022-08-05T22:54:28.740Z,101333.89
2022-08-05T22:59:45.874Z,101320.14
2022-08-05T23:04:42.569Z,101321.36
2022-08-05T23:09:53.392Z,101356.32
2022-08-05T23:14:57.591Z,101361.48
2022-08-05T23:20:05.297Z,101362.80
2022-08-05T23:25:11.473Z,101376.45
2022-08-05T23:30:17.560Z,101372.56
2022-08-05T23:35:23.035Z,101366.91
2022-08-05T23:40:28.700Z,101373.42
2022-08-05T23:45:34.409Z,101374.39
2022-08-05T23:50:41.256Z,101370.42
2022-08-05T23:55:46.817Z,101387.92
